Grand Junction Regional Airport
KGJT : now visible

Airfield :











YOU CAN JOIN US ON...

 
LOGIN :

Register | Disclaimer

   EN    FR    IT 

 









Legend :    VFR   Marginal VFR   IFR   Intensive IFR   Very Intensive IFR
Visi :
Ceiling :
>= 8 km
>= 3000ft
5 to 8 km
1000 to 3000 ft
1500m to 5 km
500 to 1000 ft
800 to 1500m
200 to 500 ft
< 800m
< 200 ft
Symbols :   Thunderstorms  Fog  Heavy snow  Heavy precipitations  Wind > 20 kt






- Airport Elevation : 4858 ft
- IATA code : GJT


KGJT - Grand Junction Regional

CURRENT METAR :
  • 110253Z 34008KT 10SM CLR 29/M08 A2999 RMK AO2 SLP076 T02941078 55002

EXPIRED METARs :
  • 110153Z 31009KT 10SM CLR 32/M07 A2998 RMK AO2 SLP072 T03221072
  • 110053Z 31011G16KT 10SM CLR 34/M11 A2998 RMK AO2 SLP073 T03441111

TAF KGJT
Valid from the 11 at 01:00 until the 12 at 00:00 UTC


110105Z 1101/1124 30010G20KT P6SM FEW120
FM110200 28006KT P6SM FEW150
FM110300 07006KT P6SM FEW150
FM110500 10006KT P6SM FEW180
FM111700 20006KT P6SM FEW150
KZDV FIR / North America



MET'MAP, your aeronautical weather chart ! - Copyright ORBIFLY December 2007 - Disclaimer

ORBIFLY MET'MAP TEAM :

Programming & Development : Alexandra Zaïnal
Concept & original design : Baudouin d'Aumeries
Assistance for programming : Marc-Olivier Méhu
Technical & hardware support : Manuel Goepfert

Contact : metmap@orbifly.com




SOURCES & CREDITS :

   NOAA       Earth
Advisory